sensor_id;sensor_type;location;lat;lon;timestamp;pressure;altitude;pressure_sealevel;temperature;humidity
7668;BME280;3876;42.204;24.686;2023-02-17T00:01:11;100434.03;;;2.03;81.50
7668;BME280;3876;42.204;24.686;2023-02-17T00:03:38;100406.75;;;1.88;81.92
7668;BME280;3876;42.204;24.686;2023-02-17T00:06:06;100423.75;;;1.95;82.07
7668;BME280;3876;42.204;24.686;2023-02-17T00:08:32;100414.38;;;1.91;82.50
7668;BME280;3876;42.204;24.686;2023-02-17T00:10:59;100400.75;;;1.83;82.72
7668;BME280;3876;42.204;24.686;2023-02-17T00:13:26;100410.88;;;1.83;83.31
7668;BME280;3876;42.204;24.686;2023-02-17T00:15:54;100406.69;;;1.85;83.72
7668;BME280;3876;42.204;24.686;2023-02-17T00:18:22;100400.75;;;1.83;83.95
7668;BME280;3876;42.204;24.686;2023-02-17T00:20:49;100393.09;;;1.80;84.41
7668;BME280;3876;42.204;24.686;2023-02-17T00:23:15;100391.44;;;1.82;84.35
7668;BME280;3876;42.204;24.686;2023-02-17T00:25:42;100403.34;;;1.86;84.25
7668;BME280;3876;42.204;24.686;2023-02-17T00:28:09;100400.06;;;1.90;84.41
7668;BME280;3876;42.204;24.686;2023-02-17T00:30:36;100405.19;;;1.93;84.01
7668;BME280;3876;42.204;24.686;2023-02-17T00:33:05;100400.97;;;1.94;83.58
7668;BME280;3876;42.204;24.686;2023-02-17T00:35:32;100396.78;;;1.96;83.28
7668;BME280;3876;42.204;24.686;2023-02-17T00:37:59;100384.16;;;1.97;83.03
7668;BME280;3876;42.204;24.686;2023-02-17T00:40:25;100387.53;;;1.96;82.71
7668;BME280;3876;42.204;24.686;2023-02-17T00:42:52;100382.47;;;1.96;82.69
7668;BME280;3876;42.204;24.686;2023-02-17T00:45:19;100377.44;;;1.96;82.39
7668;BME280;3876;42.204;24.686;2023-02-17T00:47:46;100369.84;;;1.96;81.96
7668;BME280;3876;42.204;24.686;2023-02-17T00:50:14;100373.19;;;1.95;82.08
7668;BME280;3876;42.204;24.686;2023-02-17T00:52:41;100363.81;;;1.91;81.83
7668;BME280;3876;42.204;24.686;2023-02-17T00:55:08;100373.88;;;1.88;81.56
7668;BME280;3876;42.204;24.686;2023-02-17T00:57:35;100352.47;;;1.71;81.50
7668;BME280;3876;42.204;24.686;2023-02-17T01:00:02;100363.56;;;1.78;81.54
7668;BME280;3876;42.204;24.686;2023-02-17T01:02:29;100365.25;;;1.77;81.98
7668;BME280;3876;42.204;24.686;2023-02-17T01:04:56;100353.38;;;1.75;82.01
7668;BME280;3876;42.204;24.686;2023-02-17T01:07:24;100345.72;;;1.70;82.46
7668;BME280;3876;42.204;24.686;2023-02-17T01:09:51;100356.56;;;1.66;82.99
7668;BME280;3876;42.204;24.686;2023-02-17T01:12:18;100348.13;;;1.64;83.30
7668;BME280;3876;42.204;24.686;2023-02-17T01:14:44;100347.25;;;1.64;83.52
7668;BME280;3876;42.204;24.686;2023-02-17T01:17:11;100348.97;;;1.65;83.58
7668;BME280;3876;42.204;24.686;2023-02-17T01:19:38;100335.31;;;1.56;83.46
7668;BME280;3876;42.204;24.686;2023-02-17T01:22:05;100340.53;;;1.64;83.28
7668;BME280;3876;42.204;24.686;2023-02-17T01:24:33;100342.16;;;1.62;83.03
7668;BME280;3876;42.204;24.686;2023-02-17T01:26:59;100332.88;;;1.61;82.88
7668;BME280;3876;42.204;24.686;2023-02-17T01:29:26;100336.16;;;1.57;82.85
7668;BME280;3876;42.204;24.686;2023-02-17T01:31:53;100331.97;;;1.57;82.77
7668;BME280;3876;42.204;24.686;2023-02-17T01:34:20;100331.97;;;1.57;82.93
7668;BME280;3876;42.204;24.686;2023-02-17T01:36:47;100326.06;;;1.57;82.61
7668;BME280;3876;42.204;24.686;2023-02-17T01:39:14;100322.72;;;1.58;82.39
7668;BME280;3876;42.204;24.686;2023-02-17T01:41:43;100325.19;;;1.55;82.49
7668;BME280;3876;42.204;24.686;2023-02-17T01:44:13;100281.72;;;1.31;82.67
7668;BME280;3876;42.204;24.686;2023-02-17T01:46:41;100317.41;;;1.46;82.79
7668;BME280;3876;42.204;24.686;2023-02-17T01:49:26;100314.84;;;1.44;83.09
7668;BME280;3876;42.204;24.686;2023-02-17T01:51:57;100323.13;;;1.37;83.41
7668;BME280;3876;42.204;24.686;2023-02-17T01:54:29;100311.28;;;1.36;83.63
7668;BME280;3876;42.204;24.686;2023-02-17T01:57:01;100312.94;;;1.34;83.38
7668;BME280;3876;42.204;24.686;2023-02-17T01:59:29;100300.16;;;1.27;83.41
7668;BME280;3876;42.204;24.686;2023-02-17T02:01:58;100287.38;;;1.19;83.57
7668;BME280;3876;42.204;24.686;2023-02-17T02:04:29;100312.84;;;1.30;83.76
7668;BME280;3876;42.204;24.686;2023-02-17T02:06:58;100305.25;;;1.28;84.02
7668;BME280;3876;42.204;24.686;2023-02-17T02:09:28;100302.72;;;1.28;83.83
7668;BME280;3876;42.204;24.686;2023-02-17T02:11:56;100298.31;;;1.20;84.10
7668;BME280;3876;42.204;24.686;2023-02-17T02:14:25;100297.47;;;1.19;84.13
7668;BME280;3876;42.204;24.686;2023-02-17T02:16:59;100296.63;;;1.19;84.12
7668;BME280;3876;42.204;24.686;2023-02-17T02:19:58;100302.47;;;1.18;84.01
7668;BME280;3876;42.204;24.686;2023-02-17T02:22:52;100294.81;;;1.13;84.01
7668;BME280;3876;42.204;24.686;2023-02-17T02:25:37;100302.09;;;0.99;84.38
7668;BME280;3876;42.204;24.686;2023-02-17T02:28:19;100275.59;;;0.82;84.95
7668;BME280;3876;42.204;24.686;2023-02-17T02:31:09;100286.69;;;0.89;84.96
7668;BME280;3876;42.204;24.686;2023-02-17T02:33:48;100282.44;;;0.86;85.07
7668;BME280;3876;42.204;24.686;2023-02-17T02:36:18;100291.69;;;0.87;85.22
7668;BME280;3876;42.204;24.686;2023-02-17T02:38:52;100279.78;;;0.82;84.96
7668;BME280;3876;42.204;24.686;2023-02-17T02:41:25;100292.53;;;0.86;84.84
7668;BME280;3876;42.204;24.686;2023-02-17T02:43:53;100294.25;;;0.89;84.78
7668;BME280;3876;42.204;24.686;2023-02-17T02:46:20;100300.97;;;0.88;84.59
7668;BME280;3876;42.204;24.686;2023-02-17T02:48:49;100299.19;;;0.84;84.70
7668;BME280;3876;42.204;24.686;2023-02-17T02:51:39;100297.50;;;0.83;84.81
7668;BME280;3876;42.204;24.686;2023-02-17T02:54:17;100293.34;;;0.85;84.67
7668;BME280;3876;42.204;24.686;2023-02-17T02:57:10;100285.69;;;0.82;84.21
7668;BME280;3876;42.204;24.686;2023-02-17T02:59:46;100296.53;;;0.78;84.05
7668;BME280;3876;42.204;24.686;2023-02-17T03:02:22;100293.88;;;0.72;84.49
7668;BME280;3876;42.204;24.686;2023-02-17T03:05:01;100283.69;;;0.69;84.80
7668;BME280;3876;42.204;24.686;2023-02-17T03:07:33;100275.13;;;0.61;84.84
7668;BME280;3876;42.204;24.686;2023-02-17T03:10:00;100287.81;;;0.66;84.78
7668;BME280;3876;42.204;24.686;2023-02-17T03:12:27;100292.00;;;0.65;84.61
7668;BME280;3876;42.204;24.686;2023-02-17T03:15:03;100285.97;;;0.59;84.75
7668;BME280;3876;42.204;24.686;2023-02-17T03:17:34;100267.25;;;0.49;84.89
7668;BME280;3876;42.204;24.686;2023-02-17T03:20:03;100283.44;;;0.57;84.63
7668;BME280;3876;42.204;24.686;2023-02-17T03:22:33;100283.38;;;0.56;84.92
7668;BME280;3876;42.204;24.686;2023-02-17T03:25:01;100280.84;;;0.54;84.77
7668;BME280;3876;42.204;24.686;2023-02-17T03:27:28;100273.94;;;0.47;84.80
7668;BME280;3876;42.204;24.686;2023-02-17T03:29:55;100293.44;;;0.54;84.54
7668;BME280;3876;42.204;24.686;2023-02-17T03:32:22;100285.81;;;0.52;84.61
7668;BME280;3876;42.204;24.686;2023-02-17T03:34:48;100283.94;;;0.44;84.99
7668;BME280;3876;42.204;24.686;2023-02-17T03:37:17;100305.13;;;0.50;85.00
7668;BME280;3876;42.204;24.686;2023-02-17T03:39:44;100299.16;;;0.47;84.99
7668;BME280;3876;42.204;24.686;2023-02-17T03:42:10;100300.78;;;0.45;85.31
7668;BME280;3876;42.204;24.686;2023-02-17T03:44:37;100301.59;;;0.44;85.60
7668;BME280;3876;42.204;24.686;2023-02-17T03:47:04;100299.84;;;0.41;85.84
7668;BME280;3876;42.204;24.686;2023-02-17T03:49:31;100284.53;;;0.34;85.39
7668;BME280;3876;42.204;24.686;2023-02-17T03:51:57;100295.56;;;0.39;85.16
7668;BME280;3876;42.204;24.686;2023-02-17T03:54:26;100292.91;;;0.33;85.27
7668;BME280;3876;42.204;24.686;2023-02-17T03:56:53;100299.59;;;0.31;85.42
7668;BME280;3876;42.204;24.686;2023-02-17T03:59:20;100293.47;;;0.23;85.74
7668;BME280;3876;42.204;24.686;2023-02-17T04:01:46;100286.75;;;0.22;86.38
7668;BME280;3876;42.204;24.686;2023-02-17T04:04:13;100284.31;;;0.25;86.37
7668;BME280;3876;42.204;24.686;2023-02-17T04:06:40;100284.16;;;0.19;86.23
7668;BME280;3876;42.204;24.686;2023-02-17T04:09:08;100289.88;;;0.13;86.44
7668;BME280;3876;42.204;24.686;2023-02-17T04:11:36;100291.59;;;0.14;86.97
7668;BME280;3876;42.204;24.686;2023-02-17T04:14:04;100291.59;;;0.14;87.08
7668;BME280;3876;42.204;24.686;2023-02-17T04:16:30;100277.16;;;0.09;86.77
7668;BME280;3876;42.204;24.686;2023-02-17T04:18:57;100167.97;;;-0.56;87.10
7668;BME280;3876;42.204;24.686;2023-02-17T04:21:24;100278.88;;;0.10;87.45
7668;BME280;3876;42.204;24.686;2023-02-17T04:23:51;100233.50;;;-0.23;87.15
7668;BME280;3876;42.204;24.686;2023-02-17T04:26:19;100280.41;;;0.05;87.68
7668;BME280;3876;42.204;24.686;2023-02-17T04:28:47;100285.53;;;0.08;87.56
7668;BME280;3876;42.204;24.686;2023-02-17T04:31:14;100283.81;;;0.07;87.80
7668;BME280;3876;42.204;24.686;2023-02-17T04:33:41;100288.78;;;0.04;87.68
7668;BME280;3876;42.204;24.686;2023-02-17T04:36:08;100290.41;;;0.02;87.84
7668;BME280;3876;42.204;24.686;2023-02-17T04:38:36;100282.72;;;-0.03;88.06
7668;BME280;3876;42.204;24.686;2023-02-17T04:41:04;100268.47;;;-0.03;88.28
7668;BME280;3876;42.204;24.686;2023-02-17T04:43:32;100275.22;;;-0.02;88.34
7668;BME280;3876;42.204;24.686;2023-02-17T04:46:00;100276.09;;;-0.01;88.10
7668;BME280;3876;42.204;24.686;2023-02-17T04:48:27;100264.19;;;-0.07;88.00
7668;BME280;3876;42.204;24.686;2023-02-17T04:50:54;100282.56;;;-0.09;88.27
7668;BME280;3876;42.204;24.686;2023-02-17T04:53:21;100277.50;;;-0.11;88.66
7668;BME280;3876;42.204;24.686;2023-02-17T04:55:48;100269.13;;;-0.10;88.54
7668;BME280;3876;42.204;24.686;2023-02-17T05:10:10;100269.63;;;0.79;85.57
7668;BME280;3876;42.204;24.686;2023-02-17T05:12:37;100272.94;;;0.76;85.08
7668;BME280;3876;42.204;24.686;2023-02-17T05:15:06;100270.22;;;0.67;85.02
7668;BME280;3876;42.204;24.686;2023-02-17T05:17:33;100267.56;;;0.61;85.14
7668;BME280;3876;42.204;24.686;2023-02-17T05:20:00;100253.69;;;0.45;85.36
7668;BME280;3876;42.204;24.686;2023-02-17T05:22:27;100265.34;;;0.40;85.73
7668;BME280;3876;42.204;24.686;2023-02-17T05:24:54;100268.59;;;0.35;86.13
7668;BME280;3876;42.204;24.686;2023-02-17T05:27:22;100269.31;;;0.31;86.57
7668;BME280;3876;42.204;24.686;2023-02-17T05:29:49;100264.22;;;0.28;87.30
7668;BME280;3876;42.204;24.686;2023-02-17T05:32:16;100264.13;;;0.25;87.93
7668;BME280;3876;42.204;24.686;2023-02-17T05:34:43;100257.22;;;0.18;88.49
7668;BME280;3876;42.204;24.686;2023-02-17T05:37:10;100276.88;;;-0.04;90.11
7668;BME280;3876;42.204;24.686;2023-02-17T05:39:37;100280.88;;;-0.10;91.51
7668;BME280;3876;42.204;24.686;2023-02-17T05:42:04;100268.47;;;-0.03;91.93
7668;BME280;3876;42.204;24.686;2023-02-17T05:44:32;100268.59;;;0.02;91.89
7668;BME280;3876;42.204;24.686;2023-02-17T05:46:59;100271.13;;;0.02;91.87
7668;BME280;3876;42.204;24.686;2023-02-17T05:49:26;100271.31;;;0.10;91.94
7668;BME280;3876;42.204;24.686;2023-02-17T05:51:53;100276.25;;;0.07;92.51
7668;BME280;3876;42.204;24.686;2023-02-17T05:54:19;100284.50;;;-0.01;93.37
7668;BME280;3876;42.204;24.686;2023-02-17T05:56:46;100275.22;;;-0.02;94.01
7668;BME280;3876;42.204;24.686;2023-02-17T05:59:13;100277.31;;;0.15;93.93
7668;BME280;3876;42.204;24.686;2023-02-17T06:01:42;100287.41;;;0.15;94.29
7668;BME280;3876;42.204;24.686;2023-02-17T06:04:08;100296.75;;;0.19;94.79
7668;BME280;3876;42.204;24.686;2023-02-17T06:06:35;100299.28;;;0.19;95.03
7668;BME280;3876;42.204;24.686;2023-02-17T06:09:02;100301.16;;;0.26;95.20
7668;BME280;3876;42.204;24.686;2023-02-17T06:11:29;100288.69;;;0.32;95.13
7668;BME280;3876;42.204;24.686;2023-02-17T06:13:56;100294.75;;;0.40;95.22
7668;BME280;3876;42.204;24.686;2023-02-17T06:16:23;100300.94;;;0.51;95.15
7668;BME280;3876;42.204;24.686;2023-02-17T06:18:51;100304.41;;;0.56;95.14
7668;BME280;3876;42.204;24.686;2023-02-17T06:21:18;100305.16;;;0.52;95.38
7668;BME280;3876;42.204;24.686;2023-02-17T06:23:44;100302.94;;;0.64;95.72
7668;BME280;3876;42.204;24.686;2023-02-17T06:26:11;100293.94;;;0.75;96.16
7668;BME280;3876;42.204;24.686;2023-02-17T06:28:38;100295.06;;;0.86;96.25
7668;BME280;3876;42.204;24.686;2023-02-17T06:31:05;100292.66;;;0.92;96.67
7668;BME280;3876;42.204;24.686;2023-02-17T06:33:32;100297.78;;;0.95;96.74
7668;BME280;3876;42.204;24.686;2023-02-17T06:36:00;100306.09;;;0.91;97.01
7668;BME280;3876;42.204;24.686;2023-02-17T06:38:27;100306.16;;;0.94;97.49
7668;BME280;3876;42.204;24.686;2023-02-17T06:40:54;100297.13;;;1.04;97.15
7668;BME280;3876;42.204;24.686;2023-02-17T06:43:21;100294.72;;;1.09;97.13
7668;BME280;3876;42.204;24.686;2023-02-17T06:45:48;100301.66;;;1.19;97.53
7668;BME280;3876;42.204;24.686;2023-02-17T06:48:14;100297.44;;;1.18;97.79
7668;BME280;3876;42.204;24.686;2023-02-17T06:50:41;100323.13;;;1.37;97.13
7668;BME280;3876;42.204;24.686;2023-02-17T06:53:09;100322.31;;;1.40;97.84
7668;BME280;3876;42.204;24.686;2023-02-17T06:55:36;100318.41;;;1.54;98.50
7668;BME280;3876;42.204;24.686;2023-02-17T06:58:04;100303.38;;;1.60;99.14
7668;BME280;3876;42.204;24.686;2023-02-17T07:00:31;100306.09;;;1.69;99.31
7668;BME280;3876;42.204;24.686;2023-02-17T07:02:58;100299.41;;;1.73;98.93
7668;BME280;3876;42.204;24.686;2023-02-17T07:05:25;100315.56;;;1.79;98.87
7668;BME280;3876;42.204;24.686;2023-02-17T07:07:51;100316.25;;;1.72;99.38
7668;BME280;3876;42.204;24.686;2023-02-17T07:10:21;100305.44;;;1.78;99.78
7668;BME280;3876;42.204;24.686;2023-02-17T07:12:48;100299.00;;;1.95;99.63
7668;BME280;3876;42.204;24.686;2023-02-17T07:15:15;100296.69;;;2.05;100.00
7668;BME280;3876;42.204;24.686;2023-02-17T07:17:41;100299.41;;;2.18;100.00
7668;BME280;3876;42.204;24.686;2023-02-17T07:20:09;100305.59;;;2.32;100.00
7668;BME280;3876;42.204;24.686;2023-02-17T07:22:36;100310.84;;;2.44;99.82
7668;BME280;3876;42.204;24.686;2023-02-17T07:25:03;100306.81;;;2.55;99.80
7668;BME280;3876;42.204;24.686;2023-02-17T07:27:34;100297.72;;;2.66;98.99
7668;BME280;3876;42.204;24.686;2023-02-17T07:30:01;100316.44;;;2.76;98.74
7668;BME280;3876;42.204;24.686;2023-02-17T07:32:27;100308.97;;;2.85;98.07
7668;BME280;3876;42.204;24.686;2023-02-17T07:34:54;100313.38;;;2.96;98.19
7668;BME280;3876;42.204;24.686;2023-02-17T07:37:21;100308.53;;;3.11;97.54
7668;BME280;3876;42.204;24.686;2023-02-17T07:39:48;100317.22;;;3.29;96.42
7668;BME280;3876;42.204;24.686;2023-02-17T07:42:16;100310.63;;;3.43;95.83
7668;BME280;3876;42.204;24.686;2023-02-17T07:44:45;100304.88;;;3.56;95.37
7668;BME280;3876;42.204;24.686;2023-02-17T07:47:11;100302.53;;;3.68;95.01
7668;BME280;3876;42.204;24.686;2023-02-17T07:49:38;100304.38;;;3.83;94.12
7668;BME280;3876;42.204;24.686;2023-02-17T07:52:05;100301.22;;;4.00;94.16
7668;BME280;3876;42.204;24.686;2023-02-17T07:54:32;100299.63;;;4.14;93.58
7668;BME280;3876;42.204;24.686;2023-02-17T07:56:59;100299.84;;;4.33;93.54
7668;BME280;3876;42.204;24.686;2023-02-17T07:59:25;100303.19;;;4.29;94.37
7668;BME280;3876;42.204;24.686;2023-02-17T08:01:54;100294.63;;;4.20;94.97
7668;BME280;3876;42.204;24.686;2023-02-17T08:04:20;100300.53;;;4.16;95.14
7668;BME280;3876;42.204;24.686;2023-02-17T08:06:47;100314.13;;;4.24;95.11
7668;BME280;3876;42.204;24.686;2023-02-17T08:09:14;100310.91;;;4.41;94.55
7668;BME280;3876;42.204;24.686;2023-02-17T08:11:59;100310.22;;;4.60;94.07
7668;BME280;3876;42.204;24.686;2023-02-17T08:14:42;100318.88;;;4.83;92.95
7668;BME280;3876;42.204;24.686;2023-02-17T08:17:11;100320.72;;;5.02;91.13
7668;BME280;3876;42.204;24.686;2023-02-17T08:19:38;100323.41;;;5.28;90.62
7668;BME280;3876;42.204;24.686;2023-02-17T08:22:04;100314.22;;;5.53;90.18
7668;BME280;3876;42.204;24.686;2023-02-17T08:24:31;100317.72;;;5.79;88.79
7668;BME280;3876;42.204;24.686;2023-02-17T08:26:58;100312.75;;;6.03;88.06
7668;BME280;3876;42.204;24.686;2023-02-17T08:29:25;100311.13;;;6.29;87.56
7668;BME280;3876;42.204;24.686;2023-02-17T08:31:52;100311.97;;;6.39;86.53
7668;BME280;3876;42.204;24.686;2023-02-17T08:34:20;100321.31;;;6.66;85.11
7668;BME280;3876;42.204;24.686;2023-02-17T08:36:47;100317.06;;;6.89;85.50
7668;BME280;3876;42.204;24.686;2023-02-17T08:39:16;100311.09;;;7.20;82.94
7668;BME280;3876;42.204;24.686;2023-02-17T08:41:44;100320.34;;;7.50;80.56
7668;BME280;3876;42.204;24.686;2023-02-17T08:44:14;100314.28;;;7.80;78.70
7668;BME280;3876;42.204;24.686;2023-02-17T08:46:41;100311.66;;;8.01;75.69
7668;BME280;3876;42.204;24.686;2023-02-17T08:49:08;100311.50;;;8.30;74.14
7668;BME280;3876;42.204;24.686;2023-02-17T08:51:36;100313.84;;;8.62;73.41
7668;BME280;3876;42.204;24.686;2023-02-17T08:54:05;100311.75;;;9.03;71.12
7668;BME280;3876;42.204;24.686;2023-02-17T08:56:33;100314.72;;;9.47;67.07
7668;BME280;3876;42.204;24.686;2023-02-17T08:59:00;100321.19;;;9.77;67.43
7668;BME280;3876;42.204;24.686;2023-02-17T09:01:27;100312.22;;;10.09;64.27
7668;BME280;3876;42.204;24.686;2023-02-17T09:03:57;100311.75;;;10.46;63.59
7668;BME280;3876;42.204;24.686;2023-02-17T09:06:31;100289.50;;;10.97;56.29
7668;BME280;3876;42.204;24.686;2023-02-17T09:09:00;100312.38;;;11.55;53.10
7668;BME280;3876;42.204;24.686;2023-02-17T09:11:27;100306.53;;;11.92;51.78
7668;BME280;3876;42.204;24.686;2023-02-17T09:13:53;100315.13;;;12.29;50.89
7668;BME280;3876;42.204;24.686;2023-02-17T09:16:21;100302.19;;;12.69;48.24
7668;BME280;3876;42.204;24.686;2023-02-17T09:18:49;100274.19;;;12.91;46.67
7668;BME280;3876;42.204;24.686;2023-02-17T09:21:16;100298.56;;;13.42;45.94
7668;BME280;3876;42.204;24.686;2023-02-17T09:23:43;100308.25;;;13.65;44.57
7668;BME280;3876;42.204;24.686;2023-02-17T09:26:12;100292.56;;;13.73;45.25
7668;BME280;3876;42.204;24.686;2023-02-17T09:28:40;100289.41;;;13.92;42.84
7668;BME280;3876;42.204;24.686;2023-02-17T09:31:08;100295.56;;;14.16;41.84
7668;BME280;3876;42.204;24.686;2023-02-17T09:33:35;100292.69;;;14.25;41.91
7668;BME280;3876;42.204;24.686;2023-02-17T09:36:02;100290.28;;;14.48;39.38
7668;BME280;3876;42.204;24.686;2023-02-17T09:38:29;100285.75;;;14.55;39.31
7668;BME280;3876;42.204;24.686;2023-02-17T09:40:59;100287.59;;;14.78;39.67
7668;BME280;3876;42.204;24.686;2023-02-17T09:43:30;100242.00;;;14.77;39.20
7668;BME280;3876;42.204;24.686;2023-02-17T09:46:03;100279.50;;;15.13;38.41
7668;BME280;3876;42.204;24.686;2023-02-17T09:48:32;100277.16;;;15.30;37.34
7668;BME280;3876;42.204;24.686;2023-02-17T09:51:03;100285.38;;;15.41;37.63
7668;BME280;3876;42.204;24.686;2023-02-17T09:53:36;100264.41;;;15.50;36.95
7668;BME280;3876;42.204;24.686;2023-02-17T09:56:10;100263.97;;;15.62;37.18
7668;BME280;3876;42.204;24.686;2023-02-17T09:58:42;100266.53;;;15.86;36.40
7668;BME280;3876;42.204;24.686;2023-02-17T10:01:17;100252.97;;;16.02;36.28
7668;BME280;3876;42.204;24.686;2023-02-17T10:03:48;100255.81;;;16.16;36.80
7668;BME280;3876;42.204;24.686;2023-02-17T10:06:20;100259.44;;;16.34;36.13
7668;BME280;3876;42.204;24.686;2023-02-17T10:08:52;100260.03;;;16.41;36.05
7668;BME280;3876;42.204;24.686;2023-02-17T10:11:26;100253.41;;;16.55;35.53
7668;BME280;3876;42.204;24.686;2023-02-17T10:13:59;100246.19;;;16.63;36.10
7668;BME280;3876;42.204;24.686;2023-02-17T10:16:31;100241.94;;;16.83;35.14
7668;BME280;3876;42.204;24.686;2023-02-17T10:19:04;100239.56;;;16.97;35.34
7668;BME280;3876;42.204;24.686;2023-02-17T10:21:37;100238.81;;;17.15;34.82
7668;BME280;3876;42.204;24.686;2023-02-17T10:24:06;100221.38;;;17.18;34.46
7668;BME280;3876;42.204;24.686;2023-02-17T10:26:56;100224.13;;;17.34;33.15
7668;BME280;3876;42.204;24.686;2023-02-17T10:29:35;100223.41;;;17.30;33.66
7668;BME280;3876;42.204;24.686;2023-02-17T10:32:25;100219.00;;;17.51;33.11
7668;BME280;3876;42.204;24.686;2023-02-17T10:35:03;100217.41;;;17.67;32.81
7668;BME280;3876;42.204;24.686;2023-02-17T10:37:44;100217.72;;;17.80;32.82
7668;BME280;3876;42.204;24.686;2023-02-17T10:40:15;100210.91;;;17.96;32.61
7668;BME280;3876;42.204;24.686;2023-02-17T10:42:44;100215.69;;;18.04;32.61
7668;BME280;3876;42.204;24.686;2023-02-17T10:45:20;100204.72;;;18.16;32.14
7668;BME280;3876;42.204;24.686;2023-02-17T10:47:53;100200.72;;;18.27;32.01
7668;BME280;3876;42.204;24.686;2023-02-17T10:50:24;100198.81;;;18.31;32.20
7668;BME280;3876;42.204;24.686;2023-02-17T10:52:52;100196.50;;;18.42;32.37
7668;BME280;3876;42.204;24.686;2023-02-17T10:55:27;100185.81;;;18.48;32.63
7668;BME280;3876;42.204;24.686;2023-02-17T10:58:02;100163.53;;;18.44;30.84
7668;BME280;3876;42.204;24.686;2023-02-17T11:00:32;100177.00;;;18.52;30.88
7668;BME280;3876;42.204;24.686;2023-02-17T11:02:59;100182.03;;;18.55;31.05
7668;BME280;3876;42.204;24.686;2023-02-17T11:05:27;100171.94;;;18.66;30.73
7668;BME280;3876;42.204;24.686;2023-02-17T11:07:56;100174.22;;;18.72;30.30
7668;BME280;3876;42.204;24.686;2023-02-17T11:10:27;100170.72;;;18.73;31.40
7668;BME280;3876;42.204;24.686;2023-02-17T11:12:55;100168.88;;;18.75;30.11
7668;BME280;3876;42.204;24.686;2023-02-17T11:15:28;100154.66;;;18.82;30.73
7668;BME280;3876;42.204;24.686;2023-02-17T11:17:58;100169.63;;;18.77;29.09
7668;BME280;3876;42.204;24.686;2023-02-17T11:20:33;100173.00;;;18.62;27.29
7668;BME280;3876;42.204;24.686;2023-02-17T11:23:21;100142.59;;;18.64;26.41
7668;BME280;3876;42.204;24.686;2023-02-17T11:25:57;100149.41;;;18.67;27.21
7668;BME280;3876;42.204;24.686;2023-02-17T11:28:24;100146.25;;;18.43;26.64
7668;BME280;3876;42.204;24.686;2023-02-17T11:30:53;100149.94;;;18.39;26.58
7668;BME280;3876;42.204;24.686;2023-02-17T11:33:27;100146.59;;;18.37;27.38
7668;BME280;3876;42.204;24.686;2023-02-17T11:35:55;100146.63;;;18.35;27.37
7668;BME280;3876;42.204;24.686;2023-02-17T11:38:25;100129.41;;;18.52;27.31
7668;BME280;3876;42.204;24.686;2023-02-17T11:40:54;100129.31;;;18.70;26.18
7668;BME280;3876;42.204;24.686;2023-02-17T11:43:22;100124.94;;;18.71;26.91
7668;BME280;3876;42.204;24.686;2023-02-17T11:45:55;100136.78;;;18.76;26.33
7668;BME280;3876;42.204;24.686;2023-02-17T11:48:49;100149.47;;;18.82;25.96
7668;BME280;3876;42.204;24.686;2023-02-17T11:51:24;100139.81;;;18.84;25.22
7668;BME280;3876;42.204;24.686;2023-02-17T11:53:59;100136.84;;;18.75;24.61
7668;BME280;3876;42.204;24.686;2023-02-17T11:56:32;100137.31;;;18.83;26.21
7668;BME280;3876;42.204;24.686;2023-02-17T11:59:26;100134.59;;;19.02;26.50
7668;BME280;3876;42.204;24.686;2023-02-17T12:02:14;100127.00;;;18.97;26.74
7668;BME280;3876;42.204;24.686;2023-02-17T12:04:51;100125.59;;;18.92;26.28
7668;BME280;3876;42.204;24.686;2023-02-17T12:07:35;100129.72;;;18.96;25.84
7668;BME280;3876;42.204;24.686;2023-02-17T12:10:10;100112.28;;;18.98;26.40
7668;BME280;3876;42.204;24.686;2023-02-17T12:12:53;100115.16;;;19.09;26.32
7668;BME280;3876;42.204;24.686;2023-02-17T12:15:30;100113.13;;;19.14;25.58
7668;BME280;3876;42.204;24.686;2023-02-17T12:18:08;100101.56;;;19.19;25.78
7668;BME280;3876;42.204;24.686;2023-02-17T12:20:48;100111.81;;;19.22;24.14
7668;BME280;3876;42.204;24.686;2023-02-17T12:23:30;100117.56;;;19.12;24.52
7668;BME280;3876;42.204;24.686;2023-02-17T12:26:07;100104.91;;;19.06;25.13
7668;BME280;3876;42.204;24.686;2023-02-17T12:28:47;100111.25;;;19.00;24.50
7668;BME280;3876;42.204;24.686;2023-02-17T12:31:24;100110.28;;;19.03;24.83
7668;BME280;3876;42.204;24.686;2023-02-17T12:33:58;100109.94;;;19.09;25.62
7668;BME280;3876;42.204;24.686;2023-02-17T12:36:32;100104.25;;;19.02;24.48
7668;BME280;3876;42.204;24.686;2023-02-17T12:39:02;100102.38;;;18.88;25.26
7668;BME280;3876;42.204;24.686;2023-02-17T12:41:32;100103.22;;;18.89;24.88
7668;BME280;3876;42.204;24.686;2023-02-17T12:44:04;100076.56;;;18.85;24.21
7668;BME280;3876;42.204;24.686;2023-02-17T12:46:36;100075.72;;;18.85;24.93
7668;BME280;3876;42.204;24.686;2023-02-17T12:49:09;100079.06;;;18.87;25.09
7668;BME280;3876;42.204;24.686;2023-02-17T12:51:40;100080.38;;;18.78;25.30
7668;BME280;3876;42.204;24.686;2023-02-17T12:54:14;100088.13;;;18.80;25.50
7668;BME280;3876;42.204;24.686;2023-02-17T12:56:58;100087.69;;;18.87;23.85
7668;BME280;3876;42.204;24.686;2023-02-17T12:59:31;100098.69;;;18.93;24.35
7668;BME280;3876;42.204;24.686;2023-02-17T13:02:01;100091.31;;;19.01;24.26
7668;BME280;3876;42.204;24.686;2023-02-17T13:04:30;100093.06;;;19.00;24.33
7668;BME280;3876;42.204;24.686;2023-02-17T13:07:16;100094.34;;;18.93;24.58
7668;BME280;3876;42.204;24.686;2023-02-17T13:09:45;100098.53;;;18.96;24.84
7668;BME280;3876;42.204;24.686;2023-02-17T13:12:29;100092.38;;;18.97;24.95
7668;BME280;3876;42.204;24.686;2023-02-17T13:14:58;100093.00;;;19.02;24.17
7668;BME280;3876;42.204;24.686;2023-02-17T13:17:28;100083.44;;;19.02;24.03
7668;BME280;3876;42.204;24.686;2023-02-17T13:20:03;100079.00;;;19.04;24.48
7668;BME280;3876;42.204;24.686;2023-02-17T13:22:31;100085.03;;;19.05;24.31
7668;BME280;3876;42.204;24.686;2023-02-17T13:24:58;100082.78;;;18.99;24.66
7668;BME280;3876;42.204;24.686;2023-02-17T13:27:31;100082.16;;;18.94;25.37
7668;BME280;3876;42.204;24.686;2023-02-17T13:29:59;100085.78;;;19.07;25.60
7668;BME280;3876;42.204;24.686;2023-02-17T13:32:27;100082.44;;;19.05;24.67
7668;BME280;3876;42.204;24.686;2023-02-17T13:34:59;100078.59;;;19.12;24.92